Time;durP1;ratioP1;P1;durP2;ratioP2;P2;SDS_P1;SDS_P2;PMS_P1;PMS_P2;Temp;Humidity;BMP_temperature;BMP_pressure;BME280_temperature;BME280_humidity;BME280_pressure;Samples;Min_cycle;Max_cycle;Signal;HPM_P1;HPM_P2
2022/08/06 00:00:59;;;;;;;;;;;;;;;;;;4977738;28;8703;-84
2022/08/06 00:03:24;;;;;;;;;;;;;;;;;;4978129;28;7405;-85
2022/08/06 00:05:50;;;;;;;;;;;;;;;;;;4993847;28;8437;-84
2022/08/06 00:08:16;;;;;;;;;;;;;;;;;;4978051;28;7415;-85
2022/08/06 00:10:41;;;;;;;;;;;;;;;;;;4994067;28;6955;-85
2022/08/06 00:13:07;;;;;;;;;;;;;;;;;;4977514;28;7014;-85
2022/08/06 00:15:33;;;;;;;;;;;;;;;;;;4977233;28;7141;-85
2022/08/06 00:17:58;;;;;;;;;;;;;;;;;;4994412;28;7179;-84
2022/08/06 00:20:24;;;;;;;;;;;;;;;;;;4977667;28;7230;-84
2022/08/06 00:22:49;;;;;;;;;;;;;;;;;;4977460;28;8386;-84
2022/08/06 00:25:15;;;;;;;;;;;;;;;;;;4977428;28;8393;-85
2022/08/06 00:27:41;;;;;;;;;;;;;;;;;;4994034;28;8399;-84
2022/08/06 00:30:08;;;;;;;;;;;;;;;;;;4977176;28;8713;-84
2022/08/06 00:32:34;;;;;;;;;;;;;;;;;;4993166;28;8730;-85
2022/08/06 00:35:00;;;;;;;;;;;;;;;;;;4977326;28;6839;-84
2022/08/06 00:37:28;;;;;;;;;;;;;;;;;;4993796;28;7022;-85
2022/08/06 00:39:54;;;;;;;;;;;;;;;;;;4977246;28;7265;-84
2022/08/06 00:42:20;;;;;;;;;;;;;;;;;;4993385;28;8432;-84
2022/08/06 00:44:46;;;;;;;;;;;;;;;;;;4993155;28;8399;-83
2022/08/06 00:47:11;;;;;;;;;;;;;;;;;;4976435;28;8996;-84
2022/08/06 00:49:37;;;;;;;;;;;;;;;;;;4992989;28;8401;-85
2022/08/06 00:52:03;;;;;;;;;;;;;;;;;;4992872;28;8437;-84
2022/08/06 00:54:28;;;;;;;;;;;;;;;;;;4992726;28;8279;-84
2022/08/06 00:56:54;;;;;;;;;;;;;;;;;;4976860;28;8380;-83
2022/08/06 00:59:19;;;;;;;;;;;;;;;;;;4976930;28;8645;-84
2022/08/06 01:01:45;;;;;;;;;;;;;;;;;;4976525;28;8566;-84
2022/08/06 01:04:10;;;;;;;;;;;;;;;;;;4976372;28;8432;-85
2022/08/06 01:06:36;;;;;;;;;;;;;;;;;;4976315;28;8592;-84
2022/08/06 01:09:01;;;;;;;;;;;;;;;;;;4992574;28;8986;-85
2022/08/06 01:11:27;;;;;;;;;;;;;;;;;;4976395;28;8406;-84
2022/08/06 01:13:52;;;;;;;;;;;;;;;;;;4976351;28;8682;-85
2022/08/06 01:16:23;;;;;;;;;;;;;;;;;;4976413;28;8367;-85
2022/08/06 01:19:09;;;;;;;;;;;;;;;;;;4992459;28;8423;-85
2022/08/06 01:21:44;;;;;;;;;;;;;;;;;;4953026;28;7072;-84
2022/08/06 01:24:16;;;;;;;;;;;;;;;;;;4992521;28;7103;-85
2022/08/06 01:26:47;;;;;;;;;;;;;;;;;;4976253;28;8462;-85
2022/08/06 01:29:13;;;;;;;;;;;;;;;;;;4975870;28;7172;-85
2022/08/06 01:31:44;;;;;;;;;;;;;;;;;;4975968;28;9403;-84
2022/08/06 01:34:15;;;;;;;;;;;;;;;;;;4992325;28;8445;-85
2022/08/06 01:36:44;;;;;;;;;;;;;;;;;;4992291;28;8403;-84
2022/08/06 01:39:13;;;;;;;;;;;;;;;;;;4992108;28;7047;-84
2022/08/06 01:41:42;;;;;;;;;;;;;;;;;;4992209;28;8396;-85
2022/08/06 01:44:20;;;;;;;;;;;;;;;;;;4975813;28;8598;-84
2022/08/06 01:46:52;;;;;;;;;;;;;;;;;;4991834;28;8501;-84
2022/08/06 01:49:19;;;;;;;;;;;;;;;;;;4992004;28;8563;-85
2022/08/06 01:51:48;;;;;;;;;;;;;;;;;;4992172;28;7450;-84
2022/08/06 01:54:16;;;;;;;;;;;;;;;;;;4992313;28;8842;-85
2022/08/06 01:56:45;;;;;;;;;;;;;;;;;;4992054;28;8433;-86
2022/08/06 01:59:15;;;;;;;;;;;;;;;;;;4991394;28;7113;-88
2022/08/06 02:01:42;;;;;;;;;;;;;;;;;;4975300;28;7069;-86
2022/08/06 02:04:08;;;;;;;;;;;;;;;;;;4991936;28;7081;-86
2022/08/06 02:06:40;;;;;;;;;;;;;;;;;;4991668;28;8332;-84
2022/08/06 02:09:09;;;;;;;;;;;;;;;;;;4991424;28;7198;-83
2022/08/06 02:11:37;;;;;;;;;;;;;;;;;;4991710;28;8451;-83
2022/08/06 02:14:06;;;;;;;;;;;;;;;;;;4991569;28;8966;-84
2022/08/06 02:16:37;;;;;;;;;;;;;;;;;;4991151;28;7167;-84
2022/08/06 02:19:05;;;;;;;;;;;;;;;;;;4992232;28;8486;-85
2022/08/06 02:21:33;;;;;;;;;;;;;;;;;;4991465;28;7177;-85
2022/08/06 02:24:02;;;;;;;;;;;;;;;;;;4991486;28;8701;-85
2022/08/06 02:26:30;;;;;;;;;;;;;;;;;;4991204;28;7513;-85
2022/08/06 02:28:58;;;;;;;;;;;;;;;;;;4991170;28;8695;-84
2022/08/06 02:31:24;;;;;;;;;;;;;;;;;;4991151;28;7013;-84
2022/08/06 02:33:51;;;;;;;;;;;;;;;;;;4990862;28;8493;-84
2022/08/06 02:36:42;;;;;;;;;;;;;;;;;;4991048;28;8413;-85
2022/08/06 02:39:15;;;;;;;;;;;;;;;;;;4987589;28;8577;-84
2022/08/06 02:42:02;;;;;;;;;;;;;;;;;;4990625;28;8742;-84
2022/08/06 02:44:51;;;;;;;;;;;;;;;;;;4982773;28;7084;-84
2022/08/06 02:47:31;;;;;;;;;;;;;;;;;;4976754;28;8818;-84
2022/08/06 02:50:00;;;;;;;;;;;;;;;;;;4990174;28;7180;-83
2022/08/06 02:52:39;;;;;;;;;;;;;;;;;;4991229;28;8683;-85
2022/08/06 02:55:10;;;;;;;;;;;;;;;;;;4990792;28;8498;-85
2022/08/06 02:57:39;;;;;;;;;;;;;;;;;;4990873;28;8501;-85
2022/08/06 03:00:06;;;;;;;;;;;;;;;;;;4990878;28;8759;-85
2022/08/06 03:02:35;;;;;;;;;;;;;;;;;;4991027;28;8458;-84
2022/08/06 03:05:03;;;;;;;;;;;;;;;;;;4990827;28;8320;-85
2022/08/06 03:07:32;;;;;;;;;;;;;;;;;;4991306;28;8508;-84
2022/08/06 03:09:59;;;;;;;;;;;;;;;;;;4992480;28;8492;-85
2022/08/06 03:12:26;;;;;;;;;;;;;;;;;;4994585;28;8745;-85
2022/08/06 03:14:53;;;;;;;;;;;;;;;;;;4994758;28;7097;-85
2022/08/06 03:17:20;;;;;;;;;;;;;;;;;;4995190;28;8410;-85
2022/08/06 03:19:47;;;;;;;;;;;;;;;;;;4994864;28;8725;-85
2022/08/06 03:22:14;;;;;;;;;;;;;;;;;;4995067;28;8722;-86
2022/08/06 03:24:42;;;;;;;;;;;;;;;;;;4994748;28;7191;-86
2022/08/06 03:27:10;;;;;;;;;;;;;;;;;;4994939;28;8448;-86
2022/08/06 03:29:37;;;;;;;;;;;;;;;;;;4994854;28;7519;-85
2022/08/06 03:32:04;;;;;;;;;;;;;;;;;;4994449;28;8565;-86
2022/08/06 03:34:32;;;;;;;;;;;;;;;;;;4994242;28;7152;-85
2022/08/06 03:37:00;;;;;;;;;;;;;;;;;;4994338;28;8401;-84
2022/08/06 03:39:27;;;;;;;;;;;;;;;;;;4994156;28;7155;-86
2022/08/06 03:41:54;;;;;;;;;;;;;;;;;;4993940;28;8352;-86
2022/08/06 03:44:19;;;;;;;;;;;;;;;;;;4993550;28;8623;-85
2022/08/06 03:46:51;;;;;;;;;;;;;;;;;;4993642;28;7123;-86
2022/08/06 03:49:27;;;;;;;;;;;;;;;;;;4993686;28;7034;-86
2022/08/06 03:51:54;;;;;;;;;;;;;;;;;;4991237;28;8863;-86
2022/08/06 03:54:28;;;;;;;;;;;;;;;;;;4993801;28;8826;-85
2022/08/06 03:56:56;;;;;;;;;;;;;;;;;;4994079;28;8393;-86
2022/08/06 03:59:25;;;;;;;;;;;;;;;;;;4993729;28;8765;-85
2022/08/06 04:01:52;;;;;;;;;;;;;;;;;;4993697;28;7062;-84
2022/08/06 04:04:19;;;;;;;;;;;;;;;;;;4994078;28;8773;-87
2022/08/06 04:06:46;;;;;;;;;;;;;;;;;;4993770;28;7160;-85
2022/08/06 04:09:13;;;;;;;;;;;;;;;;;;4993607;28;8822;-85
2022/08/06 04:11:39;;;;;;;;;;;;;;;;;;4993726;28;8295;-86
2022/08/06 04:14:07;;;;;;;;;;;;;;;;;;4993291;28;8413;-85
2022/08/06 04:16:33;;;;;;;;;;;;;;;;;;4982095;28;7057;-86
2022/08/06 04:19:00;;;;;;;;;;;;;;;;;;4993493;28;8445;-87
2022/08/06 04:21:26;;;;;;;;;;;;;;;;;;4991624;28;8423;-85
2022/08/06 04:23:51;;;;;;;;;;;;;;;;;;4991593;28;7338;-85
2022/08/06 04:26:19;;;;;;;;;;;;;;;;;;4992127;28;7137;-84
2022/08/06 04:28:47;;;;;;;;;;;;;;;;;;4991930;28;8451;-83
2022/08/06 04:31:14;;;;;;;;;;;;;;;;;;4991968;28;7206;-82
2022/08/06 04:33:41;;;;;;;;;;;;;;;;;;4990477;28;8578;-85
2022/08/06 04:36:08;;;;;;;;;;;;;;;;;;4991793;28;8513;-84
2022/08/06 04:38:34;;;;;;;;;;;;;;;;;;4991997;28;8771;-84
2022/08/06 04:41:01;;;;;;;;;;;;;;;;;;4991761;28;8741;-85
2022/08/06 04:43:27;;;;;;;;;;;;;;;;;;4991685;28;8524;-84
2022/08/06 04:45:54;;;;;;;;;;;;;;;;;;4991445;28;7525;-85
2022/08/06 04:48:21;;;;;;;;;;;;;;;;;;4991862;28;7077;-84
2022/08/06 04:50:47;;;;;;;;;;;;;;;;;;4991408;28;8817;-85
2022/08/06 04:53:15;;;;;;;;;;;;;;;;;;4991655;28;7009;-85
2022/08/06 04:55:42;;;;;;;;;;;;;;;;;;4992794;28;8334;-85
2022/08/06 04:58:09;;;;;;;;;;;;;;;;;;4992439;28;8424;-85
2022/08/06 05:00:37;;;;;;;;;;;;;;;;;;4992897;28;8880;-85
2022/08/06 05:03:03;;;;;;;;;;;;;;;;;;4992283;28;8531;-84
2022/08/06 05:05:36;;;;;;;;;;;;;;;;;;4974971;28;8557;-84
2022/08/06 05:08:05;;;;;;;;;;;;;;;;;;4971441;28;9313;-83
2022/08/06 05:10:36;;;;;;;;;;;;;;;;;;4971363;28;8475;-83
2022/08/06 05:13:03;;;;;;;;;;;;;;;;;;4971778;28;8743;-86
2022/08/06 05:15:32;;;;;;;;;;;;;;;;;;4973382;28;8879;-82
2022/08/06 05:18:03;;;;;;;;;;;;;;;;;;4990451;28;6908;-86
2022/08/06 05:20:32;;;;;;;;;;;;;;;;;;4977115;28;7088;-83
2022/08/06 05:23:03;;;;;;;;;;;;;;;;;;4976160;28;7050;-84
2022/08/06 05:25:29;;;;;;;;;;;;;;;;;;4975935;28;8637;-85
2022/08/06 05:27:55;;;;;;;;;;;;;;;;;;4975947;28;7354;-84
2022/08/06 05:30:21;;;;;;;;;;;;;;;;;;4975986;28;6822;-83
2022/08/06 05:32:48;;;;;;;;;;;;;;;;;;4975881;28;8407;-82
2022/08/06 05:35:14;;;;;;;;;;;;;;;;;;4974331;28;7009;-82
2022/08/06 05:37:39;;;;;;;;;;;;;;;;;;4975079;28;8847;-86
2022/08/06 05:40:06;;;;;;;;;;;;;;;;;;4974943;28;8510;-84
2022/08/06 05:42:31;;;;;;;;;;;;;;;;;;4974702;28;7044;-85
2022/08/06 05:44:57;;;;;;;;;;;;;;;;;;4975077;28;8445;-86
2022/08/06 05:47:25;;;;;;;;;;;;;;;;;;4991906;28;7151;-85
2022/08/06 05:50:12;;;;;;;;;;;;;;;;;;4991466;28;8427;-86
2022/08/06 05:52:46;;;;;;;;;;;;;;;;;;4986604;28;8505;-86
2022/08/06 05:55:19;;;;;;;;;;;;;;;;;;4986510;28;8417;-84
2022/08/06 05:57:50;;;;;;;;;;;;;;;;;;4991231;28;8438;-85
2022/08/06 06:00:17;;;;;;;;;;;;;;;;;;4983345;28;8431;-84
2022/08/06 06:02:46;;;;;;;;;;;;;;;;;;4991750;28;8751;-86
2022/08/06 06:05:13;;;;;;;;;;;;;;;;;;4991478;28;7042;-85
2022/08/06 06:07:40;;;;;;;;;;;;;;;;;;4992024;28;7028;-85
2022/08/06 06:10:06;;;;;;;;;;;;;;;;;;4991603;28;8435;-85
2022/08/06 06:12:33;;;;;;;;;;;;;;;;;;4991764;28;8643;-84
2022/08/06 06:15:03;;;;;;;;;;;;;;;;;;4991490;28;8490;-84
2022/08/06 06:17:47;;;;;;;;;;;;;;;;;;4990845;28;8401;-85
2022/08/06 06:20:13;;;;;;;;;;;;;;;;;;4989286;28;8350;-85
2022/08/06 06:22:49;;;;;;;;;;;;;;;;;;4990276;28;7166;-84
2022/08/06 06:25:28;;;;;;;;;;;;;;;;;;4989877;28;7164;-85
2022/08/06 06:28:22;;;;;;;;;;;;;;;;;;4989979;28;7061;-84
2022/08/06 06:30:50;;;;;;;;;;;;;;;;;;4989719;28;7186;-85
2022/08/06 06:33:23;;;;;;;;;;;;;;;;;;4991082;28;8752;-84
2022/08/06 06:35:54;;;;;;;;;;;;;;;;;;4991149;28;7268;-86
2022/08/06 06:38:36;;;;;;;;;;;;;;;;;;4991186;28;8730;-84
2022/08/06 06:41:13;;;;;;;;;;;;;;;;;;4991490;28;7083;-84
2022/08/06 06:43:49;;;;;;;;;;;;;;;;;;4991546;28;9234;-85
2022/08/06 06:46:19;;;;;;;;;;;;;;;;;;4990583;28;7035;-84
2022/08/06 06:48:48;;;;;;;;;;;;;;;;;;4991984;28;7044;-84
2022/08/06 06:51:20;;;;;;;;;;;;;;;;;;4991571;28;8767;-85
2022/08/06 06:53:49;;;;;;;;;;;;;;;;;;4991850;28;7264;-86
2022/08/06 06:56:19;;;;;;;;;;;;;;;;;;4989001;28;7148;-87
2022/08/06 06:58:53;;;;;;;;;;;;;;;;;;4965987;28;8381;-87
2022/08/06 07:01:20;;;;;;;;;;;;;;;;;;4976968;28;7437;-86
2022/08/06 07:03:48;;;;;;;;;;;;;;;;;;4977990;28;7084;-86
2022/08/06 07:06:16;;;;;;;;;;;;;;;;;;4978060;28;7138;-83
2022/08/06 07:08:45;;;;;;;;;;;;;;;;;;4974649;28;7275;-84
2022/08/06 07:11:15;;;;;;;;;;;;;;;;;;4975567;28;7079;-78
2022/08/06 07:13:44;;;;;;;;;;;;;;;;;;4976131;28;7055;-76
2022/08/06 07:16:12;;;;;;;;;;;;;;;;;;4976105;28;8435;-91
2022/08/06 07:18:39;;;;;;;;;;;;;;;;;;4976784;28;7048;-87
2022/08/06 07:21:06;;;;;;;;;;;;;;;;;;4982437;28;7178;-87
2022/08/06 07:23:32;;;;;;;;;;;;;;;;;;4975313;28;7141;-86
2022/08/06 07:25:59;;;;;;;;;;;;;;;;;;4975529;28;7032;-84
2022/08/06 07:28:26;;;;;;;;;;;;;;;;;;4974895;28;8814;-88
2022/08/06 07:30:53;;;;;;;;;;;;;;;;;;4974608;28;7075;-82
2022/08/06 07:33:19;;;;;;;;;;;;;;;;;;4982080;28;8483;-84
2022/08/06 07:35:47;;;;;;;;;;;;;;;;;;4995824;28;8505;-88
2022/08/06 07:38:16;;;;;;;;;;;;;;;;;;4991526;28;7079;-85
2022/08/06 07:40:52;;;;;;;;;;;;;;;;;;4990455;28;8395;-80
2022/08/06 07:43:24;;;;;;;;;;;;;;;;;;4988011;28;7232;-85
2022/08/06 07:45:51;;;;;;;;;;;;;;;;;;4988991;28;7053;-81
2022/08/06 07:48:21;;;;;;;;;;;;;;;;;;4989675;28;8518;-82
2022/08/06 07:50:49;;;;;;;;;;;;;;;;;;4984606;28;8489;-80
2022/08/06 07:53:15;;;;;;;;;;;;;;;;;;4971254;28;8705;-82
2022/08/06 07:55:43;;;;;;;;;;;;;;;;;;4970507;28;7153;-82
2022/08/06 07:58:09;;;;;;;;;;;;;;;;;;4982455;28;7056;-81
2022/08/06 08:00:36;;;;;;;;;;;;;;;;;;4989058;28;8447;-86
2022/08/06 08:08:32;;;;;;;;;;;;;;;;;;4974415;28;6860;-86
2022/08/06 08:10:59;;;;;;;;;;;;;;;;;;4989564;28;8482;-76
2022/08/06 08:13:25;;;;;;;;;;;;;;;;;;4988973;28;8498;-85
2022/08/06 08:15:51;;;;;;;;;;;;;;;;;;4991374;28;8786;-85
2022/08/06 08:18:18;;;;;;;;;;;;;;;;;;4993245;28;8375;-80
2022/08/06 08:20:45;;;;;;;;;;;;;;;;;;4994022;28;6999;-81
2022/08/06 08:23:12;;;;;;;;;;;;;;;;;;4993208;28;9000;-80
2022/08/06 08:25:38;;;;;;;;;;;;;;;;;;4993051;28;8462;-85
2022/08/06 08:28:08;;;;;;;;;;;;;;;;;;4992926;28;8393;-85
2022/08/06 08:30:36;;;;;;;;;;;;;;;;;;4993161;28;7176;-86
2022/08/06 08:33:02;;;;;;;;;;;;;;;;;;4992825;28;8477;-85
2022/08/06 08:35:28;;;;;;;;;;;;;;;;;;4992579;28;8771;-85
2022/08/06 08:37:53;;;;;;;;;;;;;;;;;;4993095;28;7033;-83
2022/08/06 08:40:21;;;;;;;;;;;;;;;;;;4992917;28;8395;-85
2022/08/06 08:42:48;;;;;;;;;;;;;;;;;;4992196;28;8454;-83
2022/08/06 08:45:16;;;;;;;;;;;;;;;;;;4992385;28;7211;-86
2022/08/06 08:47:45;;;;;;;;;;;;;;;;;;4992537;28;8473;-85
2022/08/06 08:50:11;;;;;;;;;;;;;;;;;;4993095;28;8652;-85
2022/08/06 08:52:40;;;;;;;;;;;;;;;;;;4995647;28;8738;-86
2022/08/06 08:55:10;;;;;;;;;;;;;;;;;;4977142;28;8462;-87
2022/08/06 08:57:37;;;;;;;;;;;;;;;;;;4993376;28;8767;-88
2022/08/06 09:00:04;;;;;;;;;;;;;;;;;;4976558;28;8464;-88
2022/08/06 09:02:30;;;;;;;;;;;;;;;;;;4992170;28;9019;-88
2022/08/06 09:04:56;;;;;;;;;;;;;;;;;;4992351;28;7213;-87
2022/08/06 09:07:22;;;;;;;;;;;;;;;;;;4992726;28;7433;-87
2022/08/06 09:09:48;;;;;;;;;;;;;;;;;;4992365;28;9311;-83
2022/08/06 09:12:14;;;;;;;;;;;;;;;;;;4992678;28;8588;-83
2022/08/06 09:14:43;;;;;;;;;;;;;;;;;;4992092;28;7469;-83
2022/08/06 09:17:09;;;;;;;;;;;;;;;;;;4992322;28;7208;-86
2022/08/06 09:19:35;;;;;;;;;;;;;;;;;;4992746;28;8443;-86
2022/08/06 09:22:00;;;;;;;;;;;;;;;;;;4991807;28;8363;-86
2022/08/06 09:24:26;;;;;;;;;;;;;;;;;;4992247;28;7154;-86
2022/08/06 09:27:05;;;;;;;;;;;;;;;;;;4992497;28;8800;-86
2022/08/06 09:29:31;;;;;;;;;;;;;;;;;;4992057;28;8560;-86
2022/08/06 09:31:58;;;;;;;;;;;;;;;;;;4975991;28;8434;-86
2022/08/06 09:34:32;;;;;;;;;;;;;;;;;;4992447;28;8480;-85
2022/08/06 09:36:57;;;;;;;;;;;;;;;;;;4975929;28;7435;-83
2022/08/06 09:39:40;;;;;;;;;;;;;;;;;;4976861;28;7190;-87
2022/08/06 09:42:07;;;;;;;;;;;;;;;;;;4977183;28;8456;-80
2022/08/06 09:44:33;;;;;;;;;;;;;;;;;;4991469;28;8474;-80
2022/08/06 09:47:00;;;;;;;;;;;;;;;;;;4992121;28;8350;-81
2022/08/06 09:49:27;;;;;;;;;;;;;;;;;;4991941;28;7706;-80
2022/08/06 09:52:31;;;;;;;;;;;;;;;;;;4988555;28;8579;-79
2022/08/06 09:54:56;;;;;;;;;;;;;;;;;;4936164;29;7075;-77
2022/08/06 09:57:27;;;;;;;;;;;;;;;;;;4920156;29;8500;-78
2022/08/06 09:59:53;;;;;;;;;;;;;;;;;;4920372;29;7059;-79
2022/08/06 10:02:19;;;;;;;;;;;;;;;;;;4920088;29;8652;-77
2022/08/06 10:04:47;;;;;;;;;;;;;;;;;;4920076;29;7209;-79
2022/08/06 10:07:13;;;;;;;;;;;;;;;;;;4920207;29;8324;-80
2022/08/06 10:09:56;;;;;;;;;;;;;;;;;;4917361;29;8324;-79
2022/08/06 10:12:22;;;;;;;;;;;;;;;;;;4913547;29;7138;-78
2022/08/06 10:14:48;;;;;;;;;;;;;;;;;;4902613;29;7186;-75
2022/08/06 10:17:15;;;;;;;;;;;;;;;;;;4896306;29;8459;-84
2022/08/06 10:19:42;;;;;;;;;;;;;;;;;;4909781;29;8833;-81
2022/08/06 10:22:08;;;;;;;;;;;;;;;;;;4917599;29;7075;-86
2022/08/06 10:24:36;;;;;;;;;;;;;;;;;;4924965;28;7034;-87
2022/08/06 12:06:25;;;;;;;;;;;;;;;;;;5109566;27;6664;-57
2022/08/06 12:09:07;;;;;;;;;;;;;;;;;;5089234;28;8474;-57
2022/08/06 12:11:40;;;;;;;;;;;;;;;;;;5085292;28;7266;-57
2022/08/06 12:14:35;;;;;;;;;;;;;;;;;;5090134;28;7113;-57
2022/08/06 12:17:09;;;;;;;;;;;;;;;;;;5089366;28;7154;-58
2022/08/06 12:19:43;;;;;;;;;;;;;;;;;;5088451;28;7243;-58
2022/08/06 12:22:14;;;;;;;;;;;;;;;;;;5091954;28;7073;-66
2022/08/06 12:27:47;;;;;;;;;;;;;;;;;;5088336;28;7465;-64
2022/08/06 12:30:13;;;;;;;;;;;;;;;;;;5088095;28;7238;-62
2022/08/06 12:32:59;;;;;;;;;;;;;;;;;;5089131;28;6955;-64
2022/08/06 12:35:26;;;;;;;;;;;;;;;;;;5088336;28;7254;-62
2022/08/06 12:37:52;;;;;;;;;;;;;;;;;;5085800;28;7212;-62
2022/08/06 12:40:26;;;;;;;;;;;;;;;;;;5089628;28;7276;-59
2022/08/06 12:43:02;;;;;;;;;;;;;;;;;;5089006;28;7180;-59
2022/08/06 12:45:28;;;;;;;;;;;;;;;;;;5088282;28;8230;-61
2022/08/06 12:48:02;;;;;;;;;;;;;;;;;;5088416;28;7083;-61
2022/08/06 12:50:29;;;;;;;;;;;;;;;;;;5088653;28;7279;-61
2022/08/06 12:53:01;;;;;;;;;;;;;;;;;;5105626;28;8522;-59
2022/08/06 12:55:35;;;;;;;;;;;;;;;;;;5090281;28;7249;-59
2022/08/06 12:58:02;;;;;;;;;;;;;;;;;;5070900;28;7162;-67
2022/08/06 13:00:29;;;;;;;;;;;;;;;;;;5070393;28;7340;-55
2022/08/06 13:02:56;;;;;;;;;;;;;;;;;;5066621;28;7024;-55
2022/08/06 13:05:26;;;;;;;;;;;;;;;;;;5067729;28;7287;-56
2022/08/06 13:10:51;;;;;;;;;;;;;;;;;;5056581;28;6987;-56
2022/08/06 13:13:17;;;;;;;;;;;;;;;;;;5057376;28;7228;-55
2022/08/06 13:16:07;;;;;;;;;;;;;;;;;;5056599;28;6983;-56
2022/08/06 13:18:34;;;;;;;;;;;;;;;;;;5056796;28;7042;-56
2022/08/06 13:21:29;;;;;;;;;;;;;;;;;;5056527;28;7607;-56
2022/08/06 13:23:55;;;;;;;;;;;;;;;;;;5055148;28;7183;-53
2022/08/06 13:26:22;;;;;;;;;;;;;;;;;;5056894;28;7058;-55
2022/08/06 13:29:06;;;;;;;;;;;;;;;;;;5073367;28;7059;-54
2022/08/06 13:31:40;;;;;;;;;;;;;;;;;;5075640;28;6946;-56
2022/08/06 13:34:09;;;;;;;;;;;;;;;;;;5073988;28;6991;-56
2022/08/06 13:36:40;;;;;;;;;;;;;;;;;;5073747;28;7351;-57
2022/08/06 13:39:19;;;;;;;;;;;;;;;;;;5073749;28;8484;-56
2022/08/06 13:41:46;;;;;;;;;;;;;;;;;;5076380;28;7243;-55
2022/08/06 13:44:28;;;;;;;;;;;;;;;;;;5073145;28;7068;-56
2022/08/06 13:46:54;;;;;;;;;;;;;;;;;;5074437;28;6941;-55
2022/08/06 13:49:20;;;;;;;;;;;;;;;;;;5074736;28;6945;-56
2022/08/06 13:51:45;;;;;;;;;;;;;;;;;;5074362;28;6838;-56
2022/08/06 13:54:11;;;;;;;;;;;;;;;;;;5074991;28;7182;-56
2022/08/06 13:56:37;;;;;;;;;;;;;;;;;;5071203;28;8509;-55
2022/08/06 13:59:03;;;;;;;;;;;;;;;;;;5070952;28;7074;-56
2022/08/06 14:01:30;;;;;;;;;;;;;;;;;;5069909;28;7198;-56
2022/08/06 14:03:56;;;;;;;;;;;;;;;;;;5048971;28;8248;-56
2022/08/06 14:06:22;;;;;;;;;;;;;;;;;;5049237;28;7299;-56
2022/08/06 14:08:48;;;;;;;;;;;;;;;;;;5069038;28;7104;-57
2022/08/06 14:11:14;;;;;;;;;;;;;;;;;;5067916;28;7043;-58
2022/08/06 14:13:45;;;;;;;;;;;;;;;;;;5053474;28;7177;-55
2022/08/06 14:16:13;;;;;;;;;;;;;;;;;;5066858;28;7192;-55
2022/08/06 14:18:40;;;;;;;;;;;;;;;;;;5053415;28;7143;-57
2022/08/06 14:21:06;;;;;;;;;;;;;;;;;;5035073;28;7762;-57
2022/08/06 14:23:32;;;;;;;;;;;;;;;;;;5031628;28;7140;-58
2022/08/06 14:25:58;;;;;;;;;;;;;;;;;;5063687;28;8403;-57
2022/08/06 14:28:25;;;;;;;;;;;;;;;;;;5072359;28;6861;-56
2022/08/06 14:30:51;;;;;;;;;;;;;;;;;;5070169;28;8440;-56
2022/08/06 14:33:18;;;;;;;;;;;;;;;;;;5064259;28;8313;-56
2022/08/06 14:35:43;;;;;;;;;;;;;;;;;;5067221;28;6836;-57
2022/08/06 14:38:12;;;;;;;;;;;;;;;;;;5084393;28;8446;-57
2022/08/06 14:46:09;;;;;;;;;;;;;;;;;;5065472;28;7024;-58
2022/08/06 14:48:36;;;;;;;;;;;;;;;;;;5069211;28;7408;-57
2022/08/06 14:51:02;;;;;;;;;;;;;;;;;;5069576;28;7095;-56
2022/08/06 14:53:35;;;;;;;;;;;;;;;;;;5070187;28;7028;-56
2022/08/06 14:56:01;;;;;;;;;;;;;;;;;;5086845;28;8456;-56
2022/08/06 14:58:27;;;;;;;;;;;;;;;;;;5072214;28;7048;-55
2022/08/06 15:00:53;;;;;;;;;;;;;;;;;;5067205;28;7203;-60
2022/08/06 15:03:18;;;;;;;;;;;;;;;;;;5070640;28;8718;-60
2022/08/06 15:05:45;;;;;;;;;;;;;;;;;;5066573;28;8459;-60
2022/08/06 15:08:11;;;;;;;;;;;;;;;;;;5069082;28;7157;-61
2022/08/06 15:10:37;;;;;;;;;;;;;;;;;;5068530;28;7266;-61
2022/08/06 15:13:04;;;;;;;;;;;;;;;;;;5059315;28;7077;-62
2022/08/06 15:15:33;;;;;;;;;;;;;;;;;;5044747;28;7417;-53
2022/08/06 15:17:59;;;;;;;;;;;;;;;;;;5041214;28;8818;-60
2022/08/06 15:20:25;;;;;;;;;;;;;;;;;;5069427;28;7124;-61
2022/08/06 15:22:50;;;;;;;;;;;;;;;;;;5072606;28;7101;-62
2022/08/06 15:25:19;;;;;;;;;;;;;;;;;;5068584;28;7235;-60
2022/08/06 15:27:45;;;;;;;;;;;;;;;;;;5069420;28;7496;-56
2022/08/06 15:30:13;;;;;;;;;;;;;;;;;;5070204;28;7071;-57
2022/08/06 15:32:38;;;;;;;;;;;;;;;;;;5069539;28;7213;-52
2022/08/06 15:35:07;;;;;;;;;;;;;;;;;;5074602;28;7145;-54
2022/08/06 15:37:33;;;;;;;;;;;;;;;;;;5074654;28;6955;-53
2022/08/06 15:40:06;;;;;;;;;;;;;;;;;;5074202;28;7308;-55
2022/08/06 15:42:31;;;;;;;;;;;;;;;;;;5074592;28;7044;-55
2022/08/06 15:47:58;;;;;;;;;;;;;;;;;;5074725;28;6959;-55
2022/08/06 15:50:40;;;;;;;;;;;;;;;;;;5074174;28;6973;-54
2022/08/06 15:53:06;;;;;;;;;;;;;;;;;;5074436;28;6980;-56
2022/08/06 16:04:40;;;;;;;;;;;;;;;;;;5067763;28;6696;-57
2022/08/06 16:07:06;;;;;;;;;;;;;;;;;;5074742;28;7024;-56
2022/08/06 16:09:36;;;;;;;;;;;;;;;;;;5074343;28;6965;-55
2022/08/06 16:12:08;;;;;;;;;;;;;;;;;;5074408;28;7351;-56
2022/08/06 16:14:34;;;;;;;;;;;;;;;;;;5074301;28;7413;-55
2022/08/06 16:17:10;;;;;;;;;;;;;;;;;;5073993;28;6947;-55
2022/08/06 16:19:36;;;;;;;;;;;;;;;;;;5074091;28;7140;-57
2022/08/06 16:22:02;;;;;;;;;;;;;;;;;;5074147;28;7219;-56
2022/08/06 16:24:27;;;;;;;;;;;;;;;;;;5073975;28;7074;-54
2022/08/06 16:26:52;;;;;;;;;;;;;;;;;;5074259;28;7270;-56
2022/08/06 16:29:29;;;;;;;;;;;;;;;;;;5074129;28;7044;-55
2022/08/06 16:31:54;;;;;;;;;;;;;;;;;;5074064;28;7407;-56
2022/08/06 16:34:28;;;;;;;;;;;;;;;;;;5074250;28;7227;-54
2022/08/06 16:36:55;;;;;;;;;;;;;;;;;;5074110;28;7178;-56
2022/08/06 16:39:20;;;;;;;;;;;;;;;;;;5073859;28;7197;-56
2022/08/06 16:42:01;;;;;;;;;;;;;;;;;;5076225;28;7318;-56
2022/08/06 16:44:27;;;;;;;;;;;;;;;;;;5077779;28;8302;-56
2022/08/06 16:46:53;;;;;;;;;;;;;;;;;;5077819;28;7270;-56
2022/08/06 16:49:20;;;;;;;;;;;;;;;;;;5077720;28;7100;-55
2022/08/06 16:51:59;;;;;;;;;;;;;;;;;;5077853;28;7102;-55
2022/08/06 16:54:25;;;;;;;;;;;;;;;;;;5077816;28;7084;-56
2022/08/06 16:56:51;;;;;;;;;;;;;;;;;;5077712;28;7444;-63
2022/08/06 16:59:16;;;;;;;;;;;;;;;;;;5077654;28;7295;-63
2022/08/06 17:04:41;;;;;;;;;;;;;;;;;;5077448;28;6945;-57
2022/08/06 17:07:20;;;;;;;;;;;;;;;;;;5078046;28;6959;-57
2022/08/06 17:09:46;;;;;;;;;;;;;;;;;;5077416;28;7104;-57
2022/08/06 17:12:23;;;;;;;;;;;;;;;;;;5072621;28;7149;-57
2022/08/06 17:14:49;;;;;;;;;;;;;;;;;;5077121;28;7170;-56
2022/08/06 17:17:37;;;;;;;;;;;;;;;;;;5077250;28;6984;-56
2022/08/06 17:20:03;;;;;;;;;;;;;;;;;;5076895;28;6988;-56
2022/08/06 17:22:30;;;;;;;;;;;;;;;;;;5077216;28;7446;-57
2022/08/06 17:25:29;;;;;;;;;;;;;;;;;;5077048;28;6949;-57
2022/08/06 17:27:55;;;;;;;;;;;;;;;;;;5076831;28;7590;-57
2022/08/06 17:30:35;;;;;;;;;;;;;;;;;;5076914;28;7197;-56
2022/08/06 17:33:01;;;;;;;;;;;;;;;;;;5077915;28;7171;-57
2022/08/06 17:38:32;;;;;;;;;;;;;;;;;;5076455;28;6858;-56
2022/08/06 17:41:17;;;;;;;;;;;;;;;;;;5077066;28;7145;-57
2022/08/06 17:43:42;;;;;;;;;;;;;;;;;;5076931;28;7350;-57
2022/08/06 17:46:11;;;;;;;;;;;;;;;;;;5076643;28;7021;-57
2022/08/06 17:48:37;;;;;;;;;;;;;;;;;;5076608;28;7399;-57
2022/08/06 17:51:04;;;;;;;;;;;;;;;;;;5076426;28;7170;-57
2022/08/06 17:53:31;;;;;;;;;;;;;;;;;;5076380;28;7521;-57
2022/08/06 17:59:09;;;;;;;;;;;;;;;;;;5076167;28;6716;-56
2022/08/06 18:01:35;;;;;;;;;;;;;;;;;;5076279;28;7225;-57
2022/08/06 18:04:14;;;;;;;;;;;;;;;;;;5076403;28;7074;-57
2022/08/06 18:07:07;;;;;;;;;;;;;;;;;;5076082;28;7313;-56
2022/08/06 18:09:33;;;;;;;;;;;;;;;;;;5076276;28;7438;-56
2022/08/06 18:12:17;;;;;;;;;;;;;;;;;;5076226;28;7124;-56
2022/08/06 18:14:43;;;;;;;;;;;;;;;;;;5076174;28;7090;-57
2022/08/06 18:17:17;;;;;;;;;;;;;;;;;;5076157;28;7148;-56
2022/08/06 18:19:42;;;;;;;;;;;;;;;;;;5076013;28;7253;-57
2022/08/06 18:22:08;;;;;;;;;;;;;;;;;;5076181;28;6809;-55
2022/08/06 18:24:34;;;;;;;;;;;;;;;;;;5076060;28;6971;-57
2022/08/06 18:26:59;;;;;;;;;;;;;;;;;;5075928;28;7206;-57
2022/08/06 18:29:32;;;;;;;;;;;;;;;;;;5076732;28;6969;-56
2022/08/06 18:31:58;;;;;;;;;;;;;;;;;;5075763;28;7052;-57
2022/08/06 18:34:25;;;;;;;;;;;;;;;;;;5076551;28;7153;-57
2022/08/06 18:36:51;;;;;;;;;;;;;;;;;;5075828;28;7014;-57
2022/08/06 18:39:17;;;;;;;;;;;;;;;;;;5075943;28;7089;-57
2022/08/06 18:42:18;;;;;;;;;;;;;;;;;;5075377;28;6966;-57
2022/08/06 18:44:44;;;;;;;;;;;;;;;;;;5075827;28;7679;-56
2022/08/06 18:47:15;;;;;;;;;;;;;;;;;;5075393;28;6993;-58
2022/08/06 18:49:42;;;;;;;;;;;;;;;;;;5075174;28;7027;-58
2022/08/06 18:55:15;;;;;;;;;;;;;;;;;;5075257;28;6687;-58
2022/08/06 18:57:59;;;;;;;;;;;;;;;;;;5075439;28;7254;-58
2022/08/06 19:00:25;;;;;;;;;;;;;;;;;;5075405;28;7291;-58
2022/08/06 19:06:30;;;;;;;;;;;;;;;;;;5075134;28;6697;-58
2022/08/06 19:08:57;;;;;;;;;;;;;;;;;;5075184;28;7191;-58
2022/08/06 19:14:46;;;;;;;;;;;;;;;;;;5075162;28;6692;-58
2022/08/06 19:17:31;;;;;;;;;;;;;;;;;;5073871;28;7071;-58
2022/08/06 19:19:57;;;;;;;;;;;;;;;;;;5074916;28;7355;-57
2022/08/06 19:25:25;;;;;;;;;;;;;;;;;;5074632;28;7002;-57
2022/08/06 19:27:51;;;;;;;;;;;;;;;;;;5074811;28;7143;-58
2022/08/06 19:33:52;;;;;;;;;;;;;;;;;;5074547;28;7027;-58
2022/08/06 19:36:18;;;;;;;;;;;;;;;;;;5075295;28;7368;-58
2022/08/06 19:42:12;;;;;;;;;;;;;;;;;;5074629;28;6940;-58
2022/08/06 19:44:39;;;;;;;;;;;;;;;;;;5074269;28;7213;-57
2022/08/06 19:56:01;;;;;;;;;;;;;;;;;;5054522;28;6929;-58
2022/08/06 19:58:35;;;;;;;;;;;;;;;;;;5054126;28;6958;-58
2022/08/06 20:01:07;;;;;;;;;;;;;;;;;;5054386;28;7050;-58
2022/08/06 20:06:36;;;;;;;;;;;;;;;;;;5073665;28;6752;-59